Time;durP1;ratioP1;P1;durP2;ratioP2;P2;SDS_P1;SDS_P2;PMS_P1;PMS_P2;Temp;Humidity;BMP_temperature;BMP_pressure;BME280_temperature;BME280_humidity;BME280_pressure;Samples;Min_cycle;Max_cycle;Signal;HPM_P1;HPM_P2
2021/09/15 00:00:51;;;;;;;16.73;12.52;;;20.30;93.20;;;;;;5012297;28;20064;-85
2021/09/15 00:03:17;;;;;;;17.05;13.60;;;20.20;93.20;;;;;;5012195;28;20389;-80
2021/09/15 00:05:42;;;;;;;15.32;11.80;;;20.20;93.20;;;;;;5012233;28;20058;-79
2021/09/15 00:08:08;;;;;;;14.52;11.55;;;20.30;93.30;;;;;;5013595;28;20073;-78
2021/09/15 00:10:34;;;;;;;13.90;11.27;;;20.20;93.30;;;;;;5012305;28;20042;-82
2021/09/15 00:12:59;;;;;;;15.77;11.63;;;20.30;93.30;;;;;;5012196;28;20036;-82
2021/09/15 00:15:25;;;;;;;19.27;11.52;;;20.20;93.20;;;;;;4995838;28;20471;-80
2021/09/15 00:17:51;;;;;;;14.98;11.07;;;20.20;93.30;;;;;;4995889;28;20026;-79
2021/09/15 00:20:16;;;;;;;15.18;10.68;;;20.20;93.30;;;;;;4995727;28;20382;-80
2021/09/15 00:22:42;;;;;;;16.52;12.15;;;20.20;93.30;;;;;;4999405;28;20061;-84
2021/09/15 00:25:08;;;;;;;15.70;10.93;;;20.20;93.40;;;;;;4999668;28;20433;-84
2021/09/15 00:27:33;;;;;;;14.45;10.70;;;20.20;93.30;;;;;;5016144;28;20025;-84
2021/09/15 00:29:59;;;;;;;14.65;10.45;;;20.20;93.30;;;;;;4999756;28;20042;-82
2021/09/15 00:32:26;;;;;;;12.88;11.10;;;20.20;93.30;;;;;;4999852;28;20471;-82
2021/09/15 00:34:52;;;;;;;13.27;10.60;;;20.20;93.40;;;;;;5015889;28;20394;-84
2021/09/15 00:37:17;;;;;;;15.77;10.85;;;20.20;93.40;;;;;;5016048;28;20022;-85
2021/09/15 00:39:43;;;;;;;15.00;11.15;;;20.10;93.40;;;;;;5016112;28;20053;-84
2021/09/15 00:42:10;;;;;;;14.60;11.00;;;20.10;93.40;;;;;;5015765;28;20470;-83
2021/09/15 00:44:36;;;;;;;13.32;10.73;;;20.10;93.40;;;;;;5017365;28;20438;-81
2021/09/15 00:47:02;;;;;;;14.93;10.23;;;20.10;93.40;;;;;;4999833;28;20117;-80
2021/09/15 00:49:27;;;;;;;13.68;10.82;;;20.10;93.50;;;;;;5016923;28;20061;-83
2021/09/15 00:51:53;;;;;;;14.52;11.32;;;20.00;93.40;;;;;;5015703;28;20040;-84
2021/09/15 00:54:19;;;;;;;14.77;11.50;;;20.00;93.50;;;;;;5015451;28;20049;-79
2021/09/15 00:56:45;;;;;;;15.75;11.63;;;20.00;93.50;;;;;;5016573;28;20054;-82
2021/09/15 00:59:10;;;;;;;14.75;11.18;;;20.00;93.50;;;;;;4998820;28;20505;-85
2021/09/15 01:01:36;;;;;;;14.65;11.10;;;20.00;93.50;;;;;;5015749;28;20394;-83
2021/09/15 01:04:03;;;;;;;14.60;12.82;;;19.90;93.60;;;;;;5016905;28;20394;-82
2021/09/15 01:06:30;;;;;;;17.08;10.95;;;19.90;93.60;;;;;;5017480;28;20032;-79
2021/09/15 01:08:56;;;;;;;13.75;10.10;;;20.00;93.60;;;;;;5015182;28;20497;-84
2021/09/15 01:11:22;;;;;;;16.13;11.18;;;19.90;93.70;;;;;;5015104;28;20041;-79
2021/09/15 01:13:49;;;;;;;15.10;11.23;;;19.90;93.70;;;;;;4998517;28;20029;-78
2021/09/15 01:16:15;;;;;;;13.35;11.45;;;19.80;93.70;;;;;;4998675;28;20029;-78
2021/09/15 01:18:40;;;;;;;17.02;11.63;;;19.80;93.70;;;;;;5014893;28;20382;-78
2021/09/15 01:21:07;;;;;;;15.88;12.45;;;19.80;93.70;;;;;;5014815;28;20030;-79
2021/09/15 01:23:33;;;;;;;13.48;11.48;;;19.70;93.80;;;;;;4998446;28;20034;-79
2021/09/15 01:25:59;;;;;;;14.38;11.30;;;19.70;93.80;;;;;;5014724;28;20048;-78
2021/09/15 01:28:25;;;;;;;14.52;11.57;;;19.70;93.90;;;;;;5014691;28;20038;-78
2021/09/15 01:30:51;;;;;;;14.88;12.52;;;19.70;93.90;;;;;;4998417;28;20041;-78
2021/09/15 01:33:19;;;;;;;16.08;11.65;;;19.60;93.90;;;;;;5013465;28;20033;-79
2021/09/15 01:35:45;;;;;;;15.80;12.00;;;19.60;94.00;;;;;;5014975;28;20386;-79
2021/09/15 01:38:12;;;;;;;14.43;11.23;;;19.60;94.00;;;;;;5015666;28;20060;-78
2021/09/15 01:40:39;;;;;;;15.63;12.02;;;19.60;94.10;;;;;;5014365;28;20022;-78
2021/09/15 01:43:05;;;;;;;14.45;11.95;;;19.60;94.10;;;;;;5015888;28;20026;-78
2021/09/15 01:45:31;;;;;;;13.80;11.82;;;19.60;94.20;;;;;;4998013;28;20034;-78
2021/09/15 01:47:57;;;;;;;14.93;11.77;;;19.50;94.20;;;;;;5015531;28;20069;-78
2021/09/15 01:50:23;;;;;;;14.23;12.07;;;19.50;94.20;;;;;;5014254;28;20030;-78
2021/09/15 01:52:49;;;;;;;15.60;12.40;;;19.50;94.20;;;;;;5014534;28;20030;-78
2021/09/15 01:55:19;;;;;;;20.42;13.02;;;19.50;94.30;;;;;;5014256;28;20036;-78
2021/09/15 01:57:45;;;;;;;14.45;11.73;;;19.50;94.40;;;;;;5015278;28;20025;-83
2021/09/15 02:00:11;;;;;;;14.55;12.60;;;19.50;94.40;;;;;;5014093;28;20080;-84
2021/09/15 02:02:37;;;;;;;15.52;11.55;;;19.50;94.50;;;;;;5015573;28;20026;-78
2021/09/15 02:05:02;;;;;;;17.15;12.80;;;19.40;94.50;;;;;;5015154;28;20497;-78
2021/09/15 02:07:28;;;;;;;15.73;12.38;;;19.50;94.50;;;;;;5030394;28;20030;-78
2021/09/15 02:09:54;;;;;;;13.43;11.85;;;19.40;94.50;;;;;;5013793;28;20029;-78
2021/09/15 02:12:19;;;;;;;15.25;12.38;;;19.40;94.60;;;;;;5013810;28;20125;-78
2021/09/15 02:14:45;;;;;;;19.13;12.13;;;19.40;94.60;;;;;;4997699;28;20073;-78
2021/09/15 02:17:10;;;;;;;18.05;12.45;;;19.40;94.70;;;;;;5015308;28;20026;-84
2021/09/15 02:19:36;;;;;;;15.25;12.48;;;19.40;94.70;;;;;;5014915;28;20386;-84
2021/09/15 02:22:03;;;;;;;14.73;12.00;;;19.40;94.70;;;;;;5030165;28;20124;-84
2021/09/15 02:24:30;;;;;;;15.40;12.35;;;19.40;94.70;;;;;;5014538;28;20113;-84
2021/09/15 02:26:55;;;;;;;16.85;13.02;;;19.40;94.70;;;;;;5031128;28;20038;-84
2021/09/15 02:29:21;;;;;;;15.82;13.45;;;19.40;94.80;;;;;;5030411;28;20495;-84
2021/09/15 02:31:47;;;;;;;18.50;13.38;;;19.30;94.80;;;;;;5013535;28;20045;-84
2021/09/15 02:34:12;;;;;;;14.43;12.90;;;19.30;95.10;;;;;;4997246;28;20030;-84
2021/09/15 02:36:38;;;;;;;17.20;13.02;;;19.40;94.90;;;;;;5013634;28;20466;-84
2021/09/15 02:39:04;;;;;;;14.25;12.45;;;19.40;95.00;;;;;;5014766;28;20109;-84
2021/09/15 02:41:29;;;;;;;15.93;12.57;;;19.40;95.00;;;;;;4997085;28;20018;-83
2021/09/15 02:43:55;;;;;;;17.63;14.15;;;19.40;95.00;;;;;;5029937;28;20040;-84
2021/09/15 02:46:21;;;;;;;15.68;12.65;;;19.40;95.10;;;;;;5014487;28;20382;-83
2021/09/15 02:48:47;;;;;;;13.70;12.10;;;19.40;95.10;;;;;;5014535;28;20041;-83
2021/09/15 02:51:12;;;;;;;16.05;12.82;;;19.40;95.10;;;;;;5013442;28;20029;-83
2021/09/15 02:53:38;;;;;;;16.17;13.32;;;19.40;95.10;;;;;;5014343;28;20028;-83
2021/09/15 02:56:04;;;;;;;15.18;13.10;;;19.40;95.10;;;;;;5013850;28;20117;-83
2021/09/15 02:58:29;;;;;;;15.18;12.32;;;19.40;95.10;;;;;;5013480;28;20026;-83
2021/09/15 03:00:55;;;;;;;15.20;12.57;;;19.40;95.10;;;;;;4996933;28;20025;-84
2021/09/15 03:03:21;;;;;;;14.93;11.40;;;19.40;95.10;;;;;;5013326;28;20116;-83
2021/09/15 03:05:46;;;;;;;14.60;12.48;;;19.40;95.10;;;;;;5013173;28;20108;-83
2021/09/15 03:08:12;;;;;;;15.52;12.18;;;19.40;95.10;;;;;;5013019;28;20029;-84
2021/09/15 03:10:38;;;;;;;15.20;12.32;;;19.40;95.10;;;;;;4996724;28;20034;-84
2021/09/15 03:13:03;;;;;;;17.92;13.48;;;19.40;95.20;;;;;;4996267;28;20064;-84
2021/09/15 03:15:29;;;;;;;19.73;12.98;;;19.40;95.20;;;;;;5012962;28;20025;-83
2021/09/15 03:17:55;;;;;;;14.77;12.27;;;19.40;95.20;;;;;;5013058;28;20022;-84
2021/09/15 03:20:20;;;;;;;14.85;12.32;;;19.40;95.20;;;;;;5013430;28;20029;-84
2021/09/15 03:22:46;;;;;;;15.90;13.15;;;19.40;95.30;;;;;;4996895;28;20034;-83
2021/09/15 03:25:12;;;;;;;16.65;12.60;;;19.40;95.30;;;;;;5013169;28;20065;-83
2021/09/15 03:27:38;;;;;;;17.25;13.25;;;19.40;95.30;;;;;;5012919;28;20040;-84
2021/09/15 03:30:05;;;;;;;14.60;11.63;;;19.40;95.30;;;;;;5012715;28;20049;-84
2021/09/15 03:32:30;;;;;;;15.60;12.65;;;19.40;95.30;;;;;;4996223;28;20030;-84
2021/09/15 03:34:56;;;;;;;15.95;12.65;;;19.40;95.30;;;;;;5013814;28;20042;-83
2021/09/15 03:37:21;;;;;;;18.67;13.27;;;19.40;95.40;;;;;;5013890;28;20096;-84
2021/09/15 03:39:47;;;;;;;18.65;12.77;;;19.40;95.70;;;;;;4996242;28;20145;-83
2021/09/15 03:42:13;;;;;;;16.02;12.90;;;19.40;95.40;;;;;;5021905;28;20478;-84
2021/09/15 03:44:38;;;;;;;14.07;11.70;;;19.40;95.40;;;;;;5012490;28;20026;-84
2021/09/15 03:47:04;;;;;;;15.38;12.80;;;19.40;95.40;;;;;;5012553;28;20474;-84
2021/09/15 03:49:30;;;;;;;15.80;12.32;;;19.40;95.40;;;;;;5012340;28;20033;-78
2021/09/15 03:51:55;;;;;;;17.67;13.40;;;19.40;95.40;;;;;;5029010;28;20463;-79
2021/09/15 03:54:21;;;;;;;14.10;11.75;;;19.40;95.40;;;;;;5012271;28;20540;-79
2021/09/15 03:56:46;;;;;;;16.02;12.88;;;19.40;95.40;;;;;;5014526;28;20030;-78
2021/09/15 03:59:12;;;;;;;13.98;11.00;;;19.40;95.30;;;;;;5032794;28;20527;-79
2021/09/15 04:01:38;;;;;;;14.15;11.23;;;19.40;95.30;;;;;;5016213;28;20112;-78
2021/09/15 04:04:03;;;;;;;14.25;12.05;;;19.40;95.30;;;;;;5032775;28;20682;-78
2021/09/15 04:06:29;;;;;;;14.57;11.15;;;19.40;95.30;;;;;;5016210;28;20045;-79
2021/09/15 04:08:55;;;;;;;15.32;11.55;;;19.40;95.30;;;;;;5016384;28;20026;-78
2021/09/15 04:11:21;;;;;;;18.75;12.32;;;19.40;95.30;;;;;;5016158;28;20040;-79
2021/09/15 04:13:46;;;;;;;15.27;12.00;;;19.40;95.30;;;;;;5016287;28;20025;-79
2021/09/15 04:16:12;;;;;;;14.02;11.60;;;19.40;95.30;;;;;;5033060;28;20022;-78
2021/09/15 04:18:38;;;;;;;15.73;12.15;;;19.40;95.30;;;;;;5032513;28;20474;-78
2021/09/15 04:21:03;;;;;;;18.13;12.35;;;19.40;95.30;;;;;;4999606;28;20116;-79
2021/09/15 04:23:40;;;;;;;16.80;11.98;;;19.40;95.60;;;;;;5032424;28;20026;-78
2021/09/15 04:31:33;;;;;;;15.63;12.93;;;19.30;95.30;;;;;;5029307;28;20164;-79
2021/09/15 04:34:01;;;;;;;14.63;12.15;;;19.30;95.30;;;;;;4995737;28;20110;-78
2021/09/15 04:36:27;;;;;;;19.08;13.25;;;19.30;95.30;;;;;;5008130;28;20026;-78
2021/09/15 04:38:53;;;;;;;14.82;12.32;;;19.30;95.30;;;;;;5015265;28;20520;-78
2021/09/15 04:41:19;;;;;;;15.88;13.02;;;19.20;95.30;;;;;;5015507;28;20034;-78
2021/09/15 04:43:45;;;;;;;14.93;12.25;;;19.20;95.60;;;;;;5015590;28;20049;-78
2021/09/15 04:46:10;;;;;;;15.60;12.95;;;19.20;95.40;;;;;;5015439;28;20030;-78
2021/09/15 04:48:38;;;;;;;14.65;11.63;;;19.20;95.40;;;;;;5015327;28;20121;-78
2021/09/15 04:51:05;;;;;;;14.90;11.40;;;19.20;95.40;;;;;;4999304;28;20030;-78
2021/09/15 04:53:31;;;;;;;14.63;12.65;;;19.20;95.40;;;;;;4999068;28;20041;-79
2021/09/15 04:55:57;;;;;;;18.23;12.48;;;19.20;95.50;;;;;;5001037;28;20478;-83
2021/09/15 04:58:22;;;;;;;13.98;12.45;;;19.20;95.50;;;;;;5016188;28;20021;-83
2021/09/15 05:00:48;;;;;;;14.32;11.82;;;19.20;95.60;;;;;;5016067;28;20475;-83
2021/09/15 05:03:14;;;;;;;15.27;13.02;;;19.20;95.60;;;;;;5015262;28;20022;-83
2021/09/15 05:05:40;;;;;;;14.85;12.27;;;19.20;95.60;;;;;;5015125;28;20065;-83
2021/09/15 05:08:11;;;;;;;16.90;12.73;;;19.20;95.70;;;;;;5013711;28;20030;-83
2021/09/15 05:10:37;;;;;;;16.08;13.30;;;19.20;95.70;;;;;;4999020;28;20092;-84
2021/09/15 05:13:03;;;;;;;14.93;12.13;;;19.20;95.70;;;;;;4982519;28;20034;-83
2021/09/15 05:15:29;;;;;;;17.27;12.93;;;19.20;95.70;;;;;;4982592;28;20022;-83
2021/09/15 05:17:55;;;;;;;17.00;12.20;;;19.20;95.80;;;;;;5016258;28;20033;-83
2021/09/15 05:20:21;;;;;;;15.15;12.70;;;19.30;95.80;;;;;;5015156;28;20030;-84
2021/09/15 05:22:49;;;;;;;16.67;11.93;;;19.30;95.90;;;;;;5014720;28;20022;-84
2021/09/15 05:25:16;;;;;;;15.70;13.45;;;19.30;95.90;;;;;;5016004;28;20037;-84
2021/09/15 05:27:42;;;;;;;14.75;11.73;;;19.20;95.90;;;;;;5014600;28;20021;-83
2021/09/15 05:30:09;;;;;;;19.63;13.68;;;19.30;95.90;;;;;;5015640;28;20446;-79
2021/09/15 05:32:35;;;;;;;14.50;12.45;;;19.30;95.90;;;;;;5014759;28;20034;-79
2021/09/15 05:35:06;;;;;;;15.38;12.50;;;19.30;95.90;;;;;;5015672;28;20504;-80
2021/09/15 05:37:32;;;;;;;15.50;11.98;;;19.30;96.00;;;;;;5015481;28;20026;-79
2021/09/15 05:39:59;;;;;;;16.58;12.98;;;19.30;96.00;;;;;;5015486;28;20474;-79
2021/09/15 05:42:24;;;;;;;14.23;11.60;;;19.30;96.00;;;;;;5014241;28;20018;-85
2021/09/15 05:44:51;;;;;;;16.55;13.95;;;19.30;96.00;;;;;;4982036;28;20018;-79
2021/09/15 05:47:16;;;;;;;16.05;12.85;;;19.40;96.10;;;;;;5014068;28;20486;-76
2021/09/15 05:49:42;;;;;;;16.38;14.15;;;19.40;96.10;;;;;;5014484;28;20034;-77
2021/09/15 05:52:08;;;;;;;15.45;13.32;;;19.40;96.10;;;;;;5014073;28;20092;-78
2021/09/15 05:54:33;;;;;;;18.38;14.00;;;19.40;96.20;;;;;;4998010;28;20076;-78
2021/09/15 05:56:59;;;;;;;16.45;13.45;;;19.30;96.20;;;;;;4997912;28;20458;-77
2021/09/15 05:59:28;;;;;;;16.25;14.43;;;19.40;96.30;;;;;;5013965;28;20026;-79
2021/09/15 06:01:53;;;;;;;23.95;15.48;;;19.30;96.30;;;;;;5014336;28;20030;-79
2021/09/15 06:04:19;;;;;;;18.42;15.77;;;19.30;96.30;;;;;;5013950;28;20556;-83
2021/09/15 06:06:44;;;;;;;17.98;14.23;;;19.30;96.30;;;;;;5014983;28;20045;-82
2021/09/15 06:09:10;;;;;;;19.75;15.13;;;19.30;96.40;;;;;;4996909;28;20028;-82
2021/09/15 06:11:36;;;;;;;18.10;14.68;;;19.30;96.40;;;;;;5014143;28;20069;-83
2021/09/15 06:14:02;;;;;;;17.35;14.02;;;19.30;96.50;;;;;;5013356;28;20037;-83
2021/09/15 06:16:27;;;;;;;17.75;15.00;;;19.20;96.50;;;;;;5013523;28;20112;-82
2021/09/15 06:18:53;;;;;;;18.85;14.07;;;19.30;96.60;;;;;;5013102;28;20022;-82
2021/09/15 06:21:19;;;;;;;16.83;14.63;;;19.30;96.60;;;;;;5013530;28;20058;-83
2021/09/15 06:23:46;;;;;;;17.83;14.38;;;19.30;96.70;;;;;;5013800;28;20022;-82
2021/09/15 06:26:12;;;;;;;17.27;13.95;;;19.30;96.70;;;;;;5014514;28;20503;-79
2021/09/15 06:28:38;;;;;;;20.65;14.45;;;19.30;96.70;;;;;;5013390;28;20026;-83
2021/09/15 06:31:05;;;;;;;18.25;15.52;;;19.30;96.70;;;;;;5013372;28;20099;-79
2021/09/15 06:33:31;;;;;;;19.10;15.63;;;19.30;96.70;;;;;;5028915;28;20034;-78
2021/09/15 06:35:57;;;;;;;20.30;15.07;;;19.30;96.70;;;;;;5013451;28;20097;-77
2021/09/15 06:38:23;;;;;;;20.05;16.17;;;19.30;96.70;;;;;;5014971;28;20125;-78
2021/09/15 06:40:48;;;;;;;20.27;15.13;;;19.30;96.80;;;;;;5014731;28;20060;-77
2021/09/15 06:43:14;;;;;;;17.63;14.73;;;19.30;96.80;;;;;;5014614;28;20463;-77
2021/09/15 06:45:40;;;;;;;16.60;14.15;;;19.20;96.80;;;;;;4997208;28;20029;-84
2021/09/15 06:48:05;;;;;;;21.70;15.75;;;19.30;96.80;;;;;;5013081;28;20021;-84
2021/09/15 06:50:31;;;;;;;19.92;14.88;;;19.30;96.80;;;;;;5014200;28;20025;-82
2021/09/15 06:52:57;;;;;;;19.67;15.00;;;19.40;96.90;;;;;;5012992;28;20030;-83
2021/09/15 06:55:23;;;;;;;17.65;15.00;;;19.40;96.90;;;;;;5013065;28;20192;-82
2021/09/15 06:57:50;;;;;;;18.35;15.13;;;19.40;96.90;;;;;;5030209;28;20030;-82
2021/09/15 07:00:19;;;;;;;19.13;15.25;;;19.40;96.90;;;;;;5014523;28;20034;-81
2021/09/15 07:02:45;;;;;;;19.80;15.23;;;19.40;96.90;;;;;;4998131;28;20026;-81
2021/09/15 07:05:12;;;;;;;18.77;15.95;;;19.40;96.90;;;;;;5013579;28;20044;-81
2021/09/15 07:07:38;;;;;;;20.90;15.93;;;19.50;97.00;;;;;;4998821;28;20057;-81
2021/09/15 07:10:05;;;;;;;19.05;14.98;;;19.50;97.00;;;;;;5008424;28;20030;-80
2021/09/15 07:12:30;;;;;;;20.98;15.50;;;19.50;97.00;;;;;;5013705;28;20040;-80
2021/09/15 07:14:56;;;;;;;16.77;14.15;;;19.50;96.90;;;;;;5012769;28;20034;-80
2021/09/15 07:17:22;;;;;;;18.05;14.30;;;19.50;96.90;;;;;;5029377;28;20119;-81
2021/09/15 07:19:47;;;;;;;17.33;14.27;;;19.50;96.90;;;;;;5014026;28;20037;-78
2021/09/15 07:22:13;;;;;;;17.23;13.98;;;19.50;96.90;;;;;;5014093;28;20113;-78
2021/09/15 07:24:39;;;;;;;17.42;13.98;;;19.60;96.90;;;;;;5013777;28;20034;-77
2021/09/15 07:27:04;;;;;;;20.60;15.85;;;19.60;96.90;;;;;;5014035;28;20030;-77
2021/09/15 07:29:30;;;;;;;17.08;15.00;;;19.60;96.90;;;;;;5010595;28;20410;-78
2021/09/15 07:31:55;;;;;;;17.75;15.05;;;19.60;96.90;;;;;;4995822;28;20041;-78
2021/09/15 07:34:21;;;;;;;18.38;15.50;;;19.60;96.90;;;;;;5013466;28;20064;-78
2021/09/15 07:36:47;;;;;;;18.95;14.70;;;19.60;96.90;;;;;;5014274;28;20026;-78
2021/09/15 07:39:13;;;;;;;17.67;14.70;;;19.60;96.90;;;;;;5018290;28;20025;-77
2021/09/15 07:41:38;;;;;;;16.60;14.18;;;19.70;97.00;;;;;;5013050;28;20160;-77
2021/09/15 07:44:04;;;;;;;15.95;13.88;;;19.70;97.00;;;;;;5008906;28;20394;-77
2021/09/15 07:46:30;;;;;;;18.23;14.88;;;19.70;97.00;;;;;;4994683;28;20041;-77
2021/09/15 07:48:55;;;;;;;15.50;13.57;;;19.70;97.00;;;;;;5012102;28;20491;-77
2021/09/15 07:51:21;;;;;;;17.63;14.57;;;19.70;97.00;;;;;;5012497;28;20499;-77
2021/09/15 07:53:47;;;;;;;16.10;14.40;;;19.70;97.00;;;;;;5008930;28;20100;-79
2021/09/15 07:56:13;;;;;;;17.25;14.20;;;19.80;97.00;;;;;;5013399;28;20466;-79
2021/09/15 07:58:39;;;;;;;17.60;14.13;;;19.80;97.00;;;;;;5014471;28;20030;-79
2021/09/15 08:01:05;;;;;;;16.58;14.60;;;19.80;97.00;;;;;;5026496;28;20032;-79
2021/09/15 08:03:30;;;;;;;14.73;13.20;;;19.80;97.00;;;;;;5020883;28;20033;-79
2021/09/15 08:05:57;;;;;;;18.92;15.50;;;19.90;97.00;;;;;;5012801;28;20034;-79
2021/09/15 08:08:24;;;;;;;15.70;14.02;;;19.90;97.00;;;;;;5011985;28;20516;-79
2021/09/15 08:10:50;;;;;;;19.70;14.48;;;19.90;97.00;;;;;;5013277;28;20478;-80
2021/09/15 08:13:20;;;;;;;18.58;14.68;;;19.90;97.00;;;;;;5019007;28;20026;-79
2021/09/15 08:15:46;;;;;;;16.33;14.63;;;20.00;97.00;;;;;;5010022;28;20018;-79
2021/09/15 08:18:12;;;;;;;17.98;13.20;;;20.00;97.00;;;;;;5024848;28;20086;-79
2021/09/15 08:20:38;;;;;;;16.75;14.60;;;20.10;97.00;;;;;;5014235;28;20113;-78
2021/09/15 08:23:03;;;;;;;18.90;15.63;;;20.10;97.00;;;;;;5032619;28;20021;-82
2021/09/15 08:25:30;;;;;;;17.95;14.65;;;20.10;97.20;;;;;;5032516;28;20030;-82
2021/09/15 08:27:56;;;;;;;16.80;14.65;;;20.30;97.00;;;;;;5032718;28;20075;-82
2021/09/15 08:30:22;;;;;;;18.80;14.55;;;20.30;97.00;;;;;;5031214;28;20049;-78
2021/09/15 08:32:47;;;;;;;16.70;14.85;;;20.40;96.90;;;;;;5030965;28;20034;-78
2021/09/15 08:35:14;;;;;;;16.52;14.60;;;20.40;96.80;;;;;;5032736;28;20069;-82
2021/09/15 08:37:40;;;;;;;19.73;15.48;;;20.50;96.80;;;;;;5032997;28;20490;-82
2021/09/15 08:40:08;;;;;;;18.13;15.52;;;20.60;96.70;;;;;;5033283;28;20029;-78
2021/09/15 08:42:34;;;;;;;18.33;16.35;;;20.60;96.90;;;;;;5034957;28;20027;-78
2021/09/15 08:45:06;;;;;;;24.25;18.02;;;20.70;96.60;;;;;;5037074;28;20041;-78
2021/09/15 08:47:35;;;;;;;21.95;19.33;;;20.80;96.50;;;;;;5035677;28;20020;-78
2021/09/15 08:50:01;;;;;;;18.75;16.67;;;20.80;96.40;;;;;;5035602;28;20020;-77
2021/09/15 08:52:27;;;;;;;23.35;18.98;;;20.80;96.40;;;;;;5018949;28;20381;-78
2021/09/15 08:54:54;;;;;;;23.05;20.55;;;20.90;96.30;;;;;;5035129;28;20025;-77
2021/09/15 08:57:20;;;;;;;26.90;21.75;;;21.00;96.10;;;;;;5036661;28;20029;-82
2021/09/15 08:59:45;;;;;;;23.83;21.33;;;21.00;96.00;;;;;;5034953;28;20057;-82
2021/09/15 09:02:12;;;;;;;25.13;21.23;;;21.00;95.90;;;;;;5036149;28;20026;-78
2021/09/15 09:05:00;;;;;;;28.83;23.20;;;21.10;95.80;;;;;;5034901;28;20508;-77
2021/09/15 09:07:27;;;;;;;29.30;25.45;;;21.10;95.80;;;;;;5035318;28;20472;-78
2021/09/15 09:09:54;;;;;;;28.25;25.23;;;21.10;95.70;;;;;;5036456;28;20032;-78
2021/09/15 09:12:23;;;;;;;27.45;24.45;;;21.20;95.70;;;;;;5036218;28;20374;-78
2021/09/15 09:14:49;;;;;;;28.05;25.00;;;21.30;95.70;;;;;;5036034;28;20025;-78
2021/09/15 09:17:33;;;;;;;27.25;24.33;;;21.40;95.60;;;;;;5036145;28;20033;-78
2021/09/15 09:20:36;;;;;;;26.55;23.73;;;21.50;95.50;;;;;;5034702;28;20064;-82
2021/09/15 09:23:07;;;;;;;26.33;23.35;;;21.50;95.30;;;;;;5017892;28;20049;-82
2021/09/15 09:25:43;;;;;;;30.50;26.20;;;21.60;95.10;;;;;;5034621;28;20020;-81
2021/09/15 09:28:20;;;;;;;30.17;26.77;;;21.60;94.90;;;;;;5035713;28;20026;-81
2021/09/15 09:30:48;;;;;;;30.75;27.33;;;21.60;94.70;;;;;;5035705;28;20104;-79
2021/09/15 09:33:14;;;;;;;32.63;28.30;;;21.70;94.60;;;;;;5034307;28;20140;-81
2021/09/15 09:35:42;;;;;;;28.27;25.17;;;21.70;94.50;;;;;;5034413;28;20494;-83
2021/09/15 09:38:22;;;;;;;30.67;27.00;;;21.70;94.40;;;;;;5034348;28;20553;-84
2021/09/15 09:40:55;;;;;;;34.47;29.80;;;21.70;94.30;;;;;;5034366;28;20108;-83
2021/09/15 09:43:21;;;;;;;33.45;29.33;;;21.60;94.10;;;;;;5035628;28;20025;-83
2021/09/15 09:45:48;;;;;;;35.30;30.52;;;21.60;94.10;;;;;;5034638;28;20025;-84
2021/09/15 09:48:35;;;;;;;33.90;30.30;;;21.50;94.00;;;;;;5034149;28;20025;-83
2021/09/15 09:51:03;;;;;;;33.50;29.23;;;21.50;94.00;;;;;;5035000;28;20482;-83
2021/09/15 09:53:28;;;;;;;37.55;31.92;;;21.50;94.00;;;;;;5016752;28;20428;-83
2021/09/15 09:55:57;;;;;;;38.13;32.75;;;21.50;94.00;;;;;;5017411;28;20112;-83
2021/09/15 09:58:25;;;;;;;35.33;31.40;;;21.50;94.00;;;;;;5035071;28;20037;-82
2021/09/15 10:00:54;;;;;;;39.53;35.22;;;21.50;94.00;;;;;;5033725;28;20406;-83
2021/09/15 10:03:20;;;;;;;39.53;34.22;;;21.50;94.30;;;;;;5033739;28;20021;-83
2021/09/15 10:05:47;;;;;;;36.88;32.75;;;21.50;94.00;;;;;;5017227;28;20626;-82
2021/09/15 10:08:16;;;;;;;37.53;32.55;;;21.50;94.00;;;;;;5033476;28;20056;-83
2021/09/15 10:10:42;;;;;;;40.42;35.00;;;21.50;94.00;;;;;;5017221;28;20034;-83
2021/09/15 10:13:09;;;;;;;35.72;30.63;;;21.50;93.90;;;;;;5033543;28;20465;-82
2021/09/15 10:15:53;;;;;;;40.45;32.95;;;21.50;94.10;;;;;;5033642;28;20032;-83
2021/09/15 10:18:20;;;;;;;39.35;34.65;;;21.60;94.10;;;;;;5034432;28;20021;-84
2021/09/15 10:20:50;;;;;;;38.85;33.67;;;21.60;93.80;;;;;;5033438;28;20072;-84
2021/09/15 10:23:46;;;;;;;40.13;34.03;;;21.60;93.70;;;;;;5033216;28;20062;-84
2021/09/15 10:26:41;;;;;;;45.65;35.35;;;21.60;93.70;;;;;;5033182;28;20474;-84
2021/09/15 10:29:29;;;;;;;36.35;31.20;;;21.50;93.60;;;;;;5034378;28;20052;-83
2021/09/15 10:31:56;;;;;;;44.22;35.38;;;21.60;93.50;;;;;;5033491;28;20018;-79
2021/09/15 10:37:26;;;;;;;43.47;34.35;;;21.50;93.00;;;;;;5035055;28;20462;-80
2021/09/15 10:40:04;;;;;;;42.63;33.85;;;21.50;92.90;;;;;;5033033;28;20426;-79
2021/09/15 10:45:12;;;;;;;44.15;34.75;;;21.40;92.50;;;;;;5034354;28;20120;-79
2021/09/15 10:47:43;;;;;;;36.75;31.52;;;21.30;92.40;;;;;;5032954;28;20493;-79
2021/09/15 10:50:12;;;;;;;47.83;33.35;;;21.30;92.60;;;;;;5032950;28;20048;-87
2021/09/15 10:52:43;;;;;;;41.35;31.63;;;21.30;92.50;;;;;;5032870;28;20030;-86
2021/09/15 10:55:23;;;;;;;41.65;32.05;;;21.30;92.60;;;;;;5032794;28;20026;-87
2021/09/15 10:57:51;;;;;;;43.17;32.45;;;21.30;92.50;;;;;;5034118;28;20082;-83
2021/09/15 11:00:16;;;;;;;35.53;27.25;;;21.40;92.40;;;;;;5034241;28;20496;-83
2021/09/15 11:02:44;;;;;;;33.10;27.10;;;21.60;92.60;;;;;;5033953;28;20061;-82
2021/09/15 11:05:25;;;;;;;30.95;25.23;;;21.80;92.60;;;;;;5034111;28;20373;-84
2021/09/15 11:07:51;;;;;;;31.05;23.05;;;22.00;92.10;;;;;;5033893;28;20033;-86
2021/09/15 11:10:34;;;;;;;29.70;21.25;;;22.30;91.70;;;;;;5033880;28;20550;-84
2021/09/15 11:13:13;;;;;;;25.58;19.92;;;22.50;91.20;;;;;;5033960;28;20029;-80
2021/09/15 11:15:48;;;;;;;22.42;19.40;;;22.60;90.40;;;;;;5033866;28;20033;-84
2021/09/15 11:18:25;;;;;;;17.30;14.75;;;23.10;90.30;;;;;;5032429;28;20021;-83
2021/09/15 11:20:55;;;;;;;19.00;14.73;;;23.60;89.30;;;;;;5032569;28;20049;-82
2021/09/15 11:23:24;;;;;;;20.23;15.32;;;23.90;87.60;;;;;;5032309;28;20099;-83
2021/09/15 11:25:50;;;;;;;20.02;16.13;;;24.20;85.70;;;;;;5032447;28;20116;-83
2021/09/15 11:28:17;;;;;;;21.33;18.98;;;24.50;84.00;;;;;;5033693;28;20417;-77
2021/09/15 11:30:59;;;;;;;22.13;18.48;;;24.80;82.10;;;;;;5032132;28;20072;-77
2021/09/15 11:33:37;;;;;;;21.52;17.30;;;24.90;78.90;;;;;;5032469;28;20113;-82
2021/09/15 11:36:10;;;;;;;21.95;18.23;;;24.90;78.20;;;;;;5032051;28;20051;-77
2021/09/15 11:38:38;;;;;;;20.95;17.55;;;24.90;77.30;;;;;;5033584;28;20381;-83
2021/09/15 11:41:11;;;;;;;20.60;17.23;;;24.80;77.10;;;;;;5033350;28;20470;-76
2021/09/15 11:43:39;;;;;;;35.03;27.30;;;24.50;76.90;;;;;;5032426;28;20025;-81
2021/09/15 11:46:05;;;;;;;29.85;26.65;;;24.30;75.30;;;;;;5032329;28;20028;-84
2021/09/15 11:48:33;;;;;;;33.33;27.75;;;23.90;76.10;;;;;;5032037;28;20034;-80
2021/09/15 11:51:12;;;;;;;28.70;25.50;;;23.60;76.80;;;;;;5033296;28;20112;-79
2021/09/15 11:53:38;;;;;;;34.78;28.95;;;23.40;77.30;;;;;;5032305;28;20044;-76
2021/09/15 11:56:04;;;;;;;31.67;27.05;;;23.20;77.60;;;;;;5033309;28;20026;-82
2021/09/15 11:58:30;;;;;;;32.35;27.40;;;23.00;78.30;;;;;;5015832;28;20405;-82
2021/09/15 12:00:56;;;;;;;34.58;30.90;;;22.90;79.00;;;;;;5031930;28;20029;-83
2021/09/15 12:03:27;;;;;;;27.42;24.52;;;22.70;79.70;;;;;;5033235;28;20084;-77
2021/09/15 12:06:00;;;;;;;23.73;21.17;;;22.60;80.30;;;;;;5032244;28;20021;-76
2021/09/15 12:08:26;;;;;;;19.95;17.75;;;22.60;79.80;;;;;;5032012;28;20018;-77
2021/09/15 12:10:56;;;;;;;18.20;16.05;;;22.50;79.20;;;;;;5032481;28;20528;-82
2021/09/15 12:13:32;;;;;;;16.63;14.02;;;22.40;79.50;;;;;;5033501;28;20032;-78
2021/09/15 12:15:59;;;;;;;14.07;11.45;;;22.20;80.20;;;;;;5015614;28;20029;-83
2021/09/15 12:18:50;;;;;;;13.50;10.07;;;22.20;81.00;;;;;;5035198;28;20394;-82
2021/09/15 12:21:21;;;;;;;17.30;10.38;;;22.10;80.30;;;;;;5035855;28;20021;-83
2021/09/15 12:23:47;;;;;;;11.23;8.38;;;22.00;80.00;;;;;;5035748;28;20513;-83
2021/09/15 12:26:14;;;;;;;11.95;8.55;;;22.00;80.50;;;;;;5037368;28;20034;-80
2021/09/15 12:28:39;;;;;;;10.00;7.60;;;21.90;79.90;;;;;;5037219;28;20112;-82
2021/09/15 12:31:15;;;;;;;9.98;7.15;;;22.00;79.80;;;;;;5035672;28;20037;-82
2021/09/15 12:33:41;;;;;;;8.95;5.45;;;22.00;79.90;;;;;;5035331;28;20046;-74
2021/09/15 12:36:12;;;;;;;8.18;5.80;;;22.20;80.10;;;;;;5035429;28;20025;-75
2021/09/15 12:39:12;;;;;;;9.43;6.55;;;22.30;79.70;;;;;;5036380;28;20022;-76
2021/09/15 12:41:52;;;;;;;9.05;5.18;;;22.60;78.60;;;;;;5035495;28;20017;-80